This is the latest recevied weather packets stored in our database for station/object N3WMC. If no packets are shown the sender has not sent any weather packets the latest 10 day(s).
| Time | Temp. | Humidity | Pressure | Rain* | Wind** | Luminosity | Snow |
|---|---|---|---|---|---|---|---|
| 1787616560 | 19.44° C | 75% | 1018.4 hPa | 0 mm | - | 0 W/m² | - |
| 1787616259 | 19.44° C | 74% | 1018.2 hPa | 0 mm | - | 1 W/m² | - |
| 1787615958 | 19.44° C | 73% | 1018.3 hPa | 0 mm | - | 1 W/m² | - |
| 1787615653 | 19.44° C | 71% | 1018.2 hPa | 0 mm | - | 2 W/m² | - |
| 1787615348 | 20° C | 72% | 1018.4 hPa | 0 mm | - | 3 W/m² | - |
| 1787615044 | 20° C | 71% | 1018.4 hPa | 0 mm | - | 3 W/m² | - |
| 1787614740 | 20° C | 69% | 1018.5 hPa | 0 mm | - | 4 W/m² | - |
| 1787614436 | 20° C | 70% | 1018.2 hPa | 0 mm | - | 6 W/m² | - |
| 1787614133 | 20° C | 67% | 1018.1 hPa | 0 mm | - | 8 W/m² | - |
| 1787613829 | 20° C | 68% | 1018.2 hPa | 0 mm | - | 8 W/m² | - |
| 1787613524 | 20.56° C | 65% | 1018.3 hPa | 0 mm | - | 10 W/m² | - |
| 1787613219 | 20.56° C | 64% | 1018.2 hPa | 0 mm | - | 15 W/m² | - |
| 1787612916 | 20.56° C | 64% | 1018.1 hPa | 0 mm | - | 19 W/m² | - |
| 1787612612 | 20.56° C | 64% | 1018.2 hPa | 0 mm | - | 21 W/m² | - |
| 1787612308 | 20.56° C | 63% | 1017.9 hPa | 0 mm | - | 22 W/m² | - |
| 1787612004 | 20.56° C | 63% | 1018.2 hPa | 0 mm | - | 32 W/m² | - |
| 1787611700 | 21.11° C | 63% | 1018 hPa | 0 mm | - | 40 W/m² | - |
| 1787611396 | 21.11° C | 61% | 1018.1 hPa | 0 mm | - | 55 W/m² | - |
| 1787611091 | 21.11° C | 61% | 1017.9 hPa | 0 mm | - | 65 W/m² | - |
| 1787610787 | 21.11° C | 60% | 1017.8 hPa | 0 mm | - | 71 W/m² | - |
| 1787610482 | 21.67° C | 59% | 1017.9 hPa | 0 mm | - | 66 W/m² | - |
| 1787610181 | 21.67° C | 58% | 1018 hPa | 0 mm | - | 72 W/m² | - |
| 1787609880 | 22.22° C | 58% | 1017.7 hPa | 0 mm | - | 81 W/m² | - |
| 1787609575 | 21.67° C | 56% | 1017.6 hPa | 0 mm | - | 128 W/m² | - |
| 1787609274 | 22.22° C | 55% | 1017.6 hPa | 0 mm | - | 106 W/m² | - |
* Rain latest hour (hover to see other rain measurements)
** Current wind speed in m/s (hover to see current wind gust speed)